createdAt,value
2022-09-07T00:00:58.917Z,7.00
2022-09-07T00:03:27.394Z,6.50
2022-09-07T00:05:54.203Z,9.35
2022-09-07T00:08:24.561Z,5.93
2022-09-07T00:11:00.229Z,3.63
2022-09-07T00:13:30.285Z,10.13
2022-09-07T00:15:57.085Z,6.10
2022-09-07T00:18:28.281Z,9.80
2022-09-07T00:21:03.375Z,9.25
2022-09-07T00:23:32.538Z,6.65
2022-09-07T00:26:13.676Z,9.75
2022-09-07T00:28:44.781Z,7.90
2022-09-07T00:31:16.212Z,5.13
2022-09-07T00:33:43.505Z,7.55
2022-09-07T00:36:10.694Z,7.38
2022-09-07T00:38:37.977Z,7.15
2022-09-07T00:41:04.745Z,8.77
2022-09-07T00:43:36.832Z,7.97
2022-09-07T00:46:05.492Z,8.57
2022-09-07T00:48:49.959Z,9.43
2022-09-07T00:51:40.428Z,6.45
2022-09-07T00:54:12.506Z,4.38
2022-09-07T00:56:42.135Z,6.28
2022-09-07T00:59:11.136Z,4.88
2022-09-07T01:01:39.561Z,4.75
2022-09-07T01:04:09.188Z,4.88
2022-09-07T01:06:38.310Z,3.33
2022-09-07T01:09:16.795Z,5.90
2022-09-07T01:11:45.833Z,3.33
2022-09-07T01:14:15.723Z,6.88
2022-09-07T01:17:19.323Z,6.38
2022-09-07T01:19:56.673Z,5.53
2022-09-07T01:23:01.171Z,4.22
2022-09-07T01:25:46.534Z,4.22
2022-09-07T01:28:27.475Z,6.13
2022-09-07T01:31:06.430Z,2.90
2022-09-07T01:33:55.543Z,7.25
2022-09-07T01:36:30.093Z,5.68
2022-09-07T01:39:04.445Z,5.32
2022-09-07T01:41:46.782Z,6.28
2022-09-07T01:44:28.774Z,5.53
2022-09-07T01:46:58.211Z,8.10
2022-09-07T01:49:35.733Z,7.05
2022-09-07T01:52:15.125Z,3.47
2022-09-07T01:54:48.670Z,7.00
2022-09-07T01:57:22.570Z,5.20
2022-09-07T01:59:58.195Z,4.72
2022-09-07T02:02:30.071Z,6.75
2022-09-07T02:05:06.532Z,7.38
2022-09-07T02:07:48.020Z,4.90
2022-09-07T02:10:24.129Z,4.65
2022-09-07T02:13:17.018Z,5.43
2022-09-07T02:15:58.099Z,5.88
2022-09-07T02:18:28.851Z,5.55
2022-09-07T02:21:00.590Z,5.63
2022-09-07T02:23:37.181Z,5.13
2022-09-07T02:26:09.387Z,7.95
2022-09-07T02:28:38.573Z,9.02
2022-09-07T02:31:06.147Z,4.68
2022-09-07T02:33:39.565Z,3.92
2022-09-07T02:36:06.714Z,6.57
2022-09-07T02:38:34.810Z,6.50
2022-09-07T02:41:03.309Z,5.93
2022-09-07T02:43:31.822Z,8.70
2022-09-07T02:46:18.563Z,7.78
2022-09-07T02:49:23.701Z,2.97
2022-09-07T02:52:35.075Z,3.63
2022-09-07T02:55:17.413Z,4.90
2022-09-07T02:57:48.447Z,6.53
2022-09-07T03:00:19.313Z,7.38
2022-09-07T03:03:08.588Z,7.18
2022-09-07T03:05:59.079Z,9.63
2022-09-07T03:08:36.824Z,5.72
2022-09-07T03:11:06.268Z,3.50
2022-09-07T03:13:33.528Z,5.68
2022-09-07T03:16:00.845Z,5.28
2022-09-07T03:18:28.439Z,4.78
2022-09-07T03:20:55.788Z,6.50
2022-09-07T03:23:24.313Z,5.03
2022-09-07T03:25:51.211Z,5.70
2022-09-07T03:28:18.031Z,7.53
2022-09-07T03:30:55.773Z,6.40
2022-09-07T03:33:22.415Z,8.20
2022-09-07T03:36:06.065Z,6.50
2022-09-07T03:38:32.824Z,9.57
2022-09-07T03:41:05.131Z,4.18
2022-09-07T03:43:32.980Z,6.60
2022-09-07T03:46:01.484Z,3.17
2022-09-07T03:48:31.158Z,4.10
2022-09-07T03:51:01.313Z,5.88
2022-09-07T03:53:30.505Z,5.88
2022-09-07T03:56:09.445Z,5.68
2022-09-07T03:58:36.081Z,6.47
2022-09-07T04:01:08.914Z,3.92
2022-09-07T04:03:37.641Z,6.80
2022-09-07T04:06:04.868Z,7.28
2022-09-07T04:08:33.747Z,7.82
2022-09-07T04:11:01.995Z,13.10
2022-09-07T04:13:31.424Z,9.73
2022-09-07T04:15:58.343Z,11.82
2022-09-07T04:18:32.079Z,10.07
2022-09-07T04:23:31.251Z,15.60
2022-09-07T04:26:02.575Z,16.83
2022-09-07T04:28:29.253Z,16.02
2022-09-07T04:30:55.943Z,14.93
2022-09-07T04:33:22.735Z,11.15
2022-09-07T04:35:49.368Z,21.00
2022-09-07T04:38:16.724Z,16.45
2022-09-07T04:40:44.256Z,21.15
2022-09-07T04:43:13.188Z,13.35
2022-09-07T04:45:40.504Z,14.30
2022-09-07T04:48:07.626Z,8.82
2022-09-07T04:50:34.483Z,7.85
2022-09-07T04:53:01.038Z,9.80
2022-09-07T04:55:27.791Z,7.47
2022-09-07T04:57:54.335Z,8.45
2022-09-07T05:00:20.956Z,9.40
2022-09-07T05:02:47.757Z,11.10
2022-09-07T05:05:14.576Z,8.57
2022-09-07T05:07:44.654Z,9.07
2022-09-07T05:10:11.553Z,6.22
2022-09-07T05:12:38.286Z,5.15
2022-09-07T05:15:05.510Z,8.18
2022-09-07T05:17:32.349Z,5.05
2022-09-07T05:19:59.197Z,11.43
2022-09-07T05:22:25.813Z,9.13
2022-09-07T05:24:54.267Z,8.18
2022-09-07T05:27:22.929Z,6.97
2022-09-07T05:30:05.819Z,5.95
2022-09-07T05:32:40.672Z,9.00
2022-09-07T05:35:07.407Z,7.57
2022-09-07T05:37:34.467Z,6.68
2022-09-07T05:40:02.856Z,6.38
2022-09-07T05:42:30.404Z,7.30
2022-09-07T05:44:57.271Z,4.07
2022-09-07T05:47:26.300Z,3.22
2022-09-07T05:49:57.064Z,8.45
2022-09-07T05:52:23.962Z,4.70
2022-09-07T05:54:54.328Z,5.35
2022-09-07T05:57:23.177Z,3.10
2022-09-07T05:59:49.764Z,2.85
2022-09-07T06:02:18.220Z,6.72
2022-09-07T06:04:48.970Z,4.80
2022-09-07T06:07:22.148Z,3.15
2022-09-07T06:12:40.166Z,3.75
2022-09-07T06:15:09.226Z,3.42
2022-09-07T06:17:35.888Z,5.28
2022-09-07T06:20:03.657Z,3.20
2022-09-07T06:22:31.303Z,5.93
2022-09-07T06:24:58.348Z,3.42
2022-09-07T06:27:24.875Z,3.25
2022-09-07T06:29:53.177Z,3.95
2022-09-07T06:35:13.327Z,5.45
2022-09-07T06:37:41.153Z,3.90
2022-09-07T06:40:08.750Z,4.15
2022-09-07T06:42:35.508Z,3.42
2022-09-07T06:45:02.121Z,5.90
2022-09-07T06:47:31.010Z,3.30
2022-09-07T06:49:59.322Z,4.13
2022-09-07T06:52:26.027Z,4.03
2022-09-07T06:55:00.239Z,4.55
2022-09-07T06:57:29.577Z,4.63
2022-09-07T06:59:56.466Z,5.70
2022-09-07T07:02:22.983Z,3.40
2022-09-07T07:04:52.369Z,4.88
2022-09-07T07:07:18.913Z,5.57
2022-09-07T07:09:45.430Z,6.78
2022-09-07T07:14:45.317Z,4.63
2022-09-07T07:17:12.303Z,6.50
2022-09-07T07:19:39.027Z,5.53
2022-09-07T07:22:18.789Z,5.07
2022-09-07T07:24:57.556Z,6.57
2022-09-07T07:27:24.158Z,4.00
2022-09-07T07:29:52.442Z,7.35
2022-09-07T07:32:19.669Z,5.22
2022-09-07T07:34:46.291Z,6.28
2022-09-07T07:37:17.235Z,4.28
2022-09-07T07:42:35.593Z,8.07
2022-09-07T07:47:51.606Z,6.68
2022-09-07T07:50:34.367Z,7.28
2022-09-07T07:55:48.929Z,5.10
2022-09-07T07:58:18.499Z,8.88
2022-09-07T08:01:00.447Z,6.53
2022-09-07T08:03:36.124Z,4.40
2022-09-07T08:06:22.730Z,6.30
2022-09-07T08:08:53.782Z,8.75
2022-09-07T08:11:20.747Z,4.35
2022-09-07T08:13:49.615Z,3.80
2022-09-07T08:16:23.076Z,3.60
2022-09-07T08:18:49.704Z,6.25
2022-09-07T08:21:16.659Z,3.70
2022-09-07T08:23:43.665Z,4.68
2022-09-07T08:26:10.440Z,4.40
2022-09-07T08:28:40.483Z,3.90
2022-09-07T08:31:15.431Z,6.28
2022-09-07T08:33:42.072Z,5.93
2022-09-07T08:36:12.475Z,4.93
2022-09-07T08:38:41.280Z,4.22
2022-09-07T08:41:19.876Z,5.40
2022-09-07T08:43:59.742Z,4.43
2022-09-07T08:46:40.462Z,4.28
2022-09-07T08:49:19.261Z,4.30
2022-09-07T08:51:53.262Z,8.98
2022-09-07T08:54:19.902Z,3.83
2022-09-07T08:59:47.789Z,5.72
2022-09-07T09:02:38.410Z,2.63
2022-09-07T09:05:20.860Z,5.03
2022-09-07T09:08:15.578Z,5.20
2022-09-07T09:10:41.996Z,2.60
2022-09-07T09:13:26.003Z,3.80
2022-09-07T09:15:52.957Z,4.95
2022-09-07T09:19:03.376Z,4.03
2022-09-07T09:21:29.910Z,2.22
2022-09-07T09:24:02.123Z,5.68
2022-09-07T09:26:35.191Z,3.78
2022-09-07T09:29:23.060Z,3.97
2022-09-07T09:31:49.926Z,4.85
2022-09-07T09:34:23.805Z,7.80
2022-09-07T09:36:54.671Z,5.97
2022-09-07T09:39:27.001Z,6.95
2022-09-07T09:41:57.232Z,4.47
2022-09-07T09:44:26.182Z,4.00
2022-09-07T09:49:41.702Z,8.00
2022-09-07T09:52:29.684Z,1.85
2022-09-07T09:55:07.156Z,3.70
2022-09-07T10:03:59.744Z,3.15
2022-09-07T10:06:28.255Z,4.63
2022-09-07T10:09:01.887Z,3.95
2022-09-07T10:14:46.362Z,6.85
2022-09-07T10:17:21.551Z,6.97
2022-09-07T10:22:40.523Z,2.30
2022-09-07T10:25:39.686Z,5.32
2022-09-07T10:28:20.300Z,4.88
2022-09-07T10:31:19.478Z,6.20
2022-09-07T10:37:08.796Z,5.43
2022-09-07T10:39:42.705Z,5.10
2022-09-07T10:42:09.351Z,5.72
2022-09-07T10:45:01.059Z,8.57
2022-09-07T10:47:33.301Z,22.80
2022-09-07T10:50:23.780Z,5.78
2022-09-07T10:52:56.454Z,6.88
2022-09-07T10:55:31.795Z,2.53
2022-09-07T11:01:14.395Z,3.47
2022-09-07T11:04:09.560Z,4.50
2022-09-07T11:06:42.640Z,4.88
2022-09-07T11:09:22.824Z,5.35
2022-09-07T11:12:01.140Z,6.35
2022-09-07T11:14:31.494Z,2.47
2022-09-07T11:17:03.047Z,3.42
2022-09-07T11:19:39.880Z,4.72
2022-09-07T11:22:20.150Z,5.07
2022-09-07T11:27:50.124Z,3.30
2022-09-07T11:30:27.405Z,4.22
2022-09-07T11:33:06.113Z,4.68
2022-09-07T11:35:59.705Z,4.68
2022-09-07T11:38:32.599Z,6.68
2022-09-07T11:41:08.128Z,4.50
2022-09-07T11:46:15.451Z,3.08
2022-09-07T11:48:47.716Z,3.55
2022-09-07T11:51:40.292Z,4.15
2022-09-07T11:54:23.939Z,5.15
2022-09-07T11:56:59.554Z,3.80
2022-09-07T11:59:52.200Z,3.70
2022-09-07T12:02:58.927Z,3.20
2022-09-07T12:06:00.554Z,7.57
2022-09-07T12:08:44.369Z,3.50
2022-09-07T12:11:25.740Z,2.17
2022-09-07T12:14:34.454Z,2.63
2022-09-07T12:17:40.649Z,2.72
2022-09-07T12:20:16.491Z,5.50
2022-09-07T12:23:05.188Z,4.25
2022-09-07T12:25:35.775Z,3.08
2022-09-07T12:28:02.752Z,5.60
2022-09-07T12:30:32.460Z,2.03
2022-09-07T12:33:18.490Z,3.42
2022-09-07T12:35:45.384Z,3.08
2022-09-07T12:38:17.812Z,4.95
2022-09-07T12:41:00.622Z,4.78
2022-09-07T12:43:52.930Z,6.03
2022-09-07T12:46:34.967Z,5.32
2022-09-07T12:49:28.186Z,2.08
2022-09-07T12:52:18.207Z,3.85
2022-09-07T12:55:26.710Z,2.80
2022-09-07T12:58:17.377Z,2.97
2022-09-07T13:01:05.768Z,2.85
2022-09-07T13:03:56.686Z,1.23
2022-09-07T13:07:07.343Z,4.97
2022-09-07T13:09:54.811Z,2.60
2022-09-07T13:15:47.698Z,2.47
2022-09-07T13:18:27.400Z,6.25
2022-09-07T13:21:13.771Z,2.30
2022-09-07T13:23:45.690Z,3.53
2022-09-07T13:26:35.317Z,3.00
2022-09-07T13:29:13.795Z,3.22
2022-09-07T13:31:43.693Z,3.00
2022-09-07T13:34:29.223Z,1.90
2022-09-07T13:36:57.589Z,6.72
2022-09-07T13:39:24.565Z,5.95
2022-09-07T13:41:55.695Z,3.03
2022-09-07T13:44:27.397Z,4.80
2022-09-07T13:47:03.036Z,2.60
2022-09-07T13:49:43.675Z,2.72
2022-09-07T13:52:18.413Z,4.30
2022-09-07T13:58:41.145Z,6.18
2022-09-07T14:01:17.957Z,2.53
2022-09-07T14:04:00.145Z,2.92
2022-09-07T14:06:28.352Z,1.95
2022-09-07T14:08:58.041Z,2.40
2022-09-07T14:11:30.641Z,3.67
2022-09-07T14:14:32.898Z,3.17
2022-09-07T14:16:59.684Z,3.58
2022-09-07T14:19:36.008Z,5.03
2022-09-07T14:22:08.745Z,2.90
2022-09-07T14:24:38.316Z,3.10
2022-09-07T14:27:20.853Z,2.17
2022-09-07T14:29:49.697Z,4.35
2022-09-07T14:32:23.833Z,3.65
2022-09-07T14:34:53.007Z,4.45
2022-09-07T14:37:21.950Z,1.48
2022-09-07T14:39:55.037Z,2.08
2022-09-07T14:42:24.109Z,2.63
2022-09-07T14:45:13.133Z,2.25
2022-09-07T14:47:40.721Z,3.47
2022-09-07T14:50:20.582Z,2.30
2022-09-07T14:55:49.476Z,3.17
2022-09-07T14:58:15.915Z,2.28
2022-09-07T15:03:59.485Z,2.90
2022-09-07T15:09:38.102Z,7.95
2022-09-07T15:12:17.738Z,3.35
2022-09-07T15:14:44.393Z,3.28
2022-09-07T15:20:32.571Z,1.48
2022-09-07T15:23:01.103Z,3.58
2022-09-07T15:25:28.805Z,4.07
2022-09-07T15:27:59.446Z,2.15
2022-09-07T15:30:27.439Z,3.00
2022-09-07T15:32:59.857Z,2.78
2022-09-07T15:35:26.925Z,4.70
2022-09-07T15:38:02.414Z,3.10
2022-09-07T15:40:36.408Z,2.72
2022-09-07T15:43:19.833Z,4.13
2022-09-07T15:45:48.129Z,2.17
2022-09-07T15:48:18.580Z,4.82
2022-09-07T15:50:45.055Z,3.35
2022-09-07T15:54:07.522Z,4.20
2022-09-07T15:55:59.783Z,3.95
2022-09-07T15:58:26.278Z,3.58
2022-09-07T16:03:43.306Z,4.43
2022-09-07T16:06:13.939Z,3.03
2022-09-07T16:08:40.938Z,4.43
2022-09-07T16:11:18.949Z,3.75
2022-09-07T16:13:48.239Z,5.50
2022-09-07T16:16:15.611Z,4.38
2022-09-07T16:18:46.664Z,4.28
2022-09-07T16:21:15.972Z,2.85
2022-09-07T16:23:45.243Z,6.07
2022-09-07T16:26:14.834Z,3.45
2022-09-07T16:28:43.539Z,4.57
2022-09-07T16:31:15.144Z,4.55
2022-09-07T16:33:41.629Z,3.33
2022-09-07T16:36:13.023Z,3.97
2022-09-07T16:38:45.128Z,5.10
2022-09-07T16:41:17.439Z,3.67
2022-09-07T16:43:48.308Z,4.25
2022-09-07T16:46:18.078Z,5.75
2022-09-07T16:48:44.646Z,3.58
2022-09-07T16:51:14.488Z,4.18
2022-09-07T16:53:41.032Z,5.82
2022-09-07T16:56:10.194Z,5.78
2022-09-07T16:58:41.630Z,3.58
2022-09-07T17:01:10.914Z,3.55
2022-09-07T17:03:38.241Z,5.68
2022-09-07T17:06:11.785Z,3.25
2022-09-07T17:08:39.551Z,3.47
2022-09-07T17:11:17.485Z,3.15
2022-09-07T17:13:46.574Z,2.90
2022-09-07T17:16:15.714Z,3.97
2022-09-07T17:21:34.717Z,3.10
2022-09-07T17:24:04.587Z,3.97
2022-09-07T17:26:32.517Z,3.75
2022-09-07T17:29:00.803Z,5.05
2022-09-07T17:34:17.909Z,4.82
2022-09-07T17:36:44.657Z,3.55
2022-09-07T17:39:16.285Z,4.20
2022-09-07T17:41:44.866Z,6.13
2022-09-07T17:44:16.325Z,4.60
2022-09-07T17:46:42.930Z,4.35
2022-09-07T17:49:16.495Z,2.83
2022-09-07T17:51:44.564Z,3.83
2022-09-07T17:54:14.765Z,4.22
2022-09-07T17:56:41.953Z,5.60
2022-09-07T18:01:56.303Z,3.85
2022-09-07T18:04:25.668Z,4.53
2022-09-07T18:06:53.986Z,2.35
2022-09-07T18:09:20.541Z,4.43
2022-09-07T18:11:49.055Z,6.53
2022-09-07T18:14:16.835Z,2.70
2022-09-07T18:16:45.152Z,2.72
2022-09-07T18:19:12.641Z,1.70
2022-09-07T18:21:43.341Z,3.50
2022-09-07T18:24:24.517Z,5.03
2022-09-07T18:26:53.229Z,5.30
2022-09-07T18:29:32.973Z,3.10
2022-09-07T18:32:08.588Z,4.10
2022-09-07T18:34:36.230Z,4.70
2022-09-07T18:37:03.009Z,4.60
2022-09-07T18:39:31.555Z,5.82
2022-09-07T18:41:58.103Z,3.25
2022-09-07T18:47:28.007Z,5.50
2022-09-07T18:49:55.530Z,5.15
2022-09-07T18:55:09.996Z,3.05
2022-09-07T18:57:40.695Z,2.65
2022-09-07T19:00:09.773Z,4.45
2022-09-07T19:02:36.637Z,6.10
2022-09-07T19:07:50.092Z,5.53
2022-09-07T19:10:22.086Z,3.58
2022-09-07T19:12:48.552Z,4.15
2022-09-07T19:15:15.177Z,2.97
2022-09-07T19:17:43.401Z,2.58
2022-09-07T19:20:13.533Z,3.03
2022-09-07T19:22:40.140Z,2.95
2022-09-07T19:25:06.966Z,4.90
2022-09-07T19:27:33.483Z,2.80
2022-09-07T19:30:00.205Z,3.85
2022-09-07T19:32:27.104Z,3.92
2022-09-07T19:34:58.505Z,5.07
2022-09-07T19:37:25.645Z,2.88
2022-09-07T19:39:55.357Z,4.68
2022-09-07T19:42:26.453Z,5.53
2022-09-07T19:44:54.059Z,3.28
2022-09-07T19:47:23.247Z,8.68
2022-09-07T19:49:49.705Z,4.60
2022-09-07T19:52:16.598Z,4.00
2022-09-07T19:54:45.614Z,5.82
2022-09-07T19:57:12.087Z,7.38
2022-09-07T19:59:38.596Z,6.80
2022-09-07T20:02:10.540Z,8.07
2022-09-07T20:04:37.007Z,10.27
2022-09-07T20:07:04.022Z,5.45
2022-09-07T20:09:30.851Z,4.63
2022-09-07T20:11:57.376Z,5.40
2022-09-07T20:14:27.392Z,4.00
2022-09-07T20:16:54.080Z,5.57
2022-09-07T20:19:20.560Z,8.35
2022-09-07T20:21:48.130Z,11.93
2022-09-07T20:24:15.124Z,8.02
2022-09-07T20:26:41.777Z,7.43
2022-09-07T20:29:26.583Z,7.15
2022-09-07T20:31:58.998Z,5.18
2022-09-07T20:34:26.927Z,5.28
2022-09-07T20:36:54.135Z,3.00
2022-09-07T20:39:22.601Z,2.67
2022-09-07T20:41:49.770Z,1.42
2022-09-07T20:44:17.075Z,4.22
2022-09-07T20:46:44.143Z,4.43
2022-09-07T20:49:11.026Z,6.03
2022-09-07T20:51:37.500Z,5.45
2022-09-07T20:54:10.774Z,11.50
2022-09-07T20:56:37.246Z,8.80
2022-09-07T20:59:03.998Z,6.53
2022-09-07T21:01:32.570Z,13.68
2022-09-07T21:04:00.845Z,12.00
2022-09-07T21:06:29.600Z,7.25
2022-09-07T21:08:59.276Z,12.77
2022-09-07T21:11:35.675Z,9.27
2022-09-07T21:14:07.811Z,11.30
2022-09-07T21:16:35.661Z,6.40
2022-09-07T21:19:04.354Z,18.00
2022-09-07T21:21:38.925Z,11.18
2022-09-07T21:24:06.624Z,7.03
2022-09-07T21:26:36.586Z,4.78
2022-09-07T21:29:05.306Z,3.17
2022-09-07T21:31:33.628Z,6.20
2022-09-07T21:34:02.069Z,8.60
2022-09-07T21:36:31.450Z,10.52
2022-09-07T21:38:57.964Z,7.57
2022-09-07T21:41:25.391Z,8.20
2022-09-07T21:43:59.273Z,5.60
2022-09-07T21:46:29.093Z,5.57
2022-09-07T21:48:58.020Z,6.35
2022-09-07T21:51:25.826Z,5.13
2022-09-07T21:53:57.199Z,6.88
2022-09-07T21:56:24.565Z,9.82
2022-09-07T21:59:01.358Z,10.60
2022-09-07T22:01:29.586Z,9.23
2022-09-07T22:04:01.065Z,11.50
2022-09-07T22:06:28.893Z,9.85
2022-09-07T22:08:56.149Z,6.88
2022-09-07T22:11:24.547Z,5.55
2022-09-07T22:13:57.417Z,4.15
2022-09-07T22:16:24.227Z,3.67
2022-09-07T22:18:51.707Z,3.90
2022-09-07T22:21:23.405Z,5.97
2022-09-07T22:23:52.482Z,4.32
2022-09-07T22:26:21.658Z,3.40
2022-09-07T22:28:49.103Z,5.15
2022-09-07T22:31:23.426Z,5.75
2022-09-07T22:33:53.075Z,6.13
2022-09-07T22:36:29.226Z,6.13
2022-09-07T22:38:59.623Z,3.67
2022-09-07T22:41:28.604Z,4.15
2022-09-07T22:43:56.073Z,6.05
2022-09-07T22:46:24.286Z,3.45
2022-09-07T22:48:53.867Z,9.82
2022-09-07T22:51:20.597Z,4.47
2022-09-07T22:53:47.224Z,10.85
2022-09-07T22:56:16.991Z,6.60
2022-09-07T22:58:50.441Z,3.97
2022-09-07T23:01:20.625Z,5.85
2022-09-07T23:03:47.184Z,2.65
2022-09-07T23:06:28.882Z,2.03
2022-09-07T23:08:58.027Z,2.63
2022-09-07T23:11:25.816Z,2.38
2022-09-07T23:13:53.819Z,2.45
2022-09-07T23:16:21.647Z,2.80
2022-09-07T23:18:48.990Z,2.17
2022-09-07T23:21:15.801Z,5.50
2022-09-07T23:23:42.438Z,1.40
2022-09-07T23:26:11.385Z,1.60
2022-09-07T23:28:39.970Z,1.98
2022-09-07T23:31:10.428Z,2.28
2022-09-07T23:33:37.287Z,3.80
2022-09-07T23:36:11.023Z,2.90
2022-09-07T23:38:37.522Z,3.20
2022-09-07T23:41:04.363Z,3.13
2022-09-07T23:43:33.687Z,3.38
2022-09-07T23:46:00.418Z,1.70
2022-09-07T23:48:29.060Z,3.42
2022-09-07T23:50:57.297Z,2.67
2022-09-07T23:53:24.209Z,2.00
2022-09-07T23:55:51.826Z,1.55
2022-09-07T23:58:26.402Z,2.03
